createdAt,value
2017-09-01T00:00:57.240Z,0
2017-09-01T00:01:58.873Z,0
2017-09-01T00:03:00.501Z,0
2017-09-01T00:04:02.129Z,0
2017-09-01T00:05:03.757Z,0
2017-09-01T00:06:05.389Z,0
2017-09-01T00:07:07.016Z,0
2017-09-01T00:08:08.646Z,0
2017-09-01T00:09:10.280Z,0
2017-09-01T00:10:11.909Z,0
2017-09-01T00:11:13.538Z,0
2017-09-01T00:12:15.163Z,0
2017-09-01T00:13:16.794Z,0
2017-09-01T00:14:18.435Z,0
2017-09-01T00:15:20.067Z,0
2017-09-01T00:16:21.698Z,0
2017-09-01T00:17:23.352Z,0
2017-09-01T00:18:24.961Z,0
2017-09-01T00:19:26.595Z,0
2017-09-01T00:20:28.224Z,0
2017-09-01T00:21:29.855Z,0
2017-09-01T00:22:31.487Z,0
2017-09-01T00:23:33.113Z,0
2017-09-01T00:24:34.755Z,0
2017-09-01T00:25:36.373Z,0
2017-09-01T00:26:38.005Z,0
2017-09-01T00:27:39.635Z,0
2017-09-01T00:28:41.264Z,0
2017-09-01T00:29:42.893Z,0
2017-09-01T00:30:44.525Z,0
2017-09-01T00:31:46.168Z,0
2017-09-01T00:32:47.789Z,0
2017-09-01T00:33:49.417Z,0
2017-09-01T00:34:51.059Z,0
2017-09-01T00:35:52.686Z,0
2017-09-01T00:36:54.322Z,0
2017-09-01T00:37:55.953Z,0
2017-09-01T00:38:57.588Z,0
2017-09-01T00:39:59.215Z,0
2017-09-01T00:41:00.844Z,0
2017-09-01T00:42:02.505Z,0
2017-09-01T00:43:04.129Z,0
2017-09-01T00:44:05.764Z,0
2017-09-01T00:45:07.396Z,0
2017-09-01T00:46:09.030Z,0
2017-09-01T00:47:10.660Z,0
2017-09-01T00:48:12.290Z,0
2017-09-01T00:49:13.923Z,0
2017-09-01T00:50:15.556Z,0
2017-09-01T00:51:17.186Z,0
2017-09-01T00:52:18.814Z,0
2017-09-01T00:53:20.448Z,0
2017-09-01T00:54:22.084Z,0
2017-09-01T00:55:23.705Z,0
2017-09-01T00:56:25.333Z,0
2017-09-01T00:57:26.962Z,0
2017-09-01T00:58:28.593Z,0
2017-09-01T00:59:30.224Z,0
2017-09-01T01:00:31.853Z,0
2017-09-01T01:01:33.499Z,0
2017-09-01T01:02:35.121Z,0
2017-09-01T01:03:36.753Z,0
2017-09-01T01:04:38.391Z,0
2017-09-01T01:05:40.024Z,0
2017-09-01T01:06:41.650Z,0
2017-09-01T01:07:43.285Z,0
2017-09-01T01:08:44.912Z,0
2017-09-01T01:09:46.540Z,0
2017-09-01T01:10:48.166Z,0
2017-09-01T01:11:49.800Z,0
2017-09-01T01:12:51.430Z,0
2017-09-01T01:13:53.060Z,0
2017-09-01T01:14:54.692Z,0
2017-09-01T01:15:56.321Z,0
2017-09-01T01:16:57.949Z,0
2017-09-01T01:17:59.583Z,0
2017-09-01T01:19:01.214Z,0
2017-09-01T01:20:02.850Z,0
2017-09-01T01:21:04.479Z,0
2017-09-01T01:22:06.115Z,0
2017-09-01T01:23:07.751Z,0
2017-09-01T01:24:09.381Z,0
2017-09-01T01:25:11.018Z,0
2017-09-01T01:26:12.649Z,0
2017-09-01T01:27:14.303Z,0
2017-09-01T01:28:15.941Z,0
2017-09-01T01:29:17.572Z,0
2017-09-01T01:30:19.211Z,0
2017-09-01T01:31:20.836Z,0
2017-09-01T01:32:22.468Z,0
2017-09-01T01:33:24.104Z,0
2017-09-01T01:34:25.735Z,0
2017-09-01T01:35:27.366Z,0
2017-09-01T01:36:29.010Z,0
2017-09-01T01:37:30.642Z,0
2017-09-01T01:38:32.274Z,0
2017-09-01T01:39:33.907Z,0
2017-09-01T01:40:35.531Z,0
2017-09-01T01:41:37.166Z,0
2017-09-01T01:42:38.799Z,0
2017-09-01T01:43:40.435Z,0
2017-09-01T01:44:42.064Z,0
2017-09-01T01:45:43.696Z,0
2017-09-01T01:46:45.331Z,0
2017-09-01T01:47:46.961Z,0
2017-09-01T01:48:48.604Z,0
2017-09-01T01:49:50.230Z,0
2017-09-01T01:50:51.864Z,0
2017-09-01T01:51:53.494Z,0
2017-09-01T01:52:55.130Z,0
2017-09-01T01:53:56.763Z,0
2017-09-01T01:54:58.418Z,0
2017-09-01T01:56:00.031Z,0
2017-09-01T01:57:01.661Z,0
2017-09-01T01:58:03.294Z,0
2017-09-01T01:59:04.923Z,0
2017-09-01T02:00:06.552Z,0
2017-09-01T02:01:08.188Z,0
2017-09-01T02:02:09.816Z,0
2017-09-01T02:03:11.450Z,0
2017-09-01T02:04:13.079Z,0
2017-09-01T02:05:14.710Z,0
2017-09-01T02:06:16.343Z,0
2017-09-01T02:07:17.973Z,0
2017-09-01T02:08:19.606Z,0
2017-09-01T02:09:21.238Z,0
2017-09-01T02:10:22.871Z,0
2017-09-01T02:11:24.500Z,0
2017-09-01T02:12:26.133Z,0
2017-09-01T02:13:27.780Z,0
2017-09-01T02:14:29.397Z,0
2017-09-01T02:15:31.036Z,0
2017-09-01T02:16:32.661Z,0
2017-09-01T02:17:34.294Z,0
2017-09-01T02:18:35.928Z,0
2017-09-01T02:19:37.561Z,0
2017-09-01T02:20:39.189Z,0
2017-09-01T02:21:40.818Z,0
2017-09-01T02:22:42.447Z,0
2017-09-01T02:23:44.084Z,0
2017-09-01T02:24:45.716Z,0
2017-09-01T02:25:47.347Z,0
2017-09-01T02:26:48.983Z,0
2017-09-01T02:27:50.613Z,0
2017-09-01T02:28:52.246Z,0
2017-09-01T02:29:53.876Z,0
2017-09-01T02:30:55.510Z,0
2017-09-01T02:31:57.143Z,0
2017-09-01T02:32:58.773Z,0
2017-09-01T02:34:00.405Z,0
2017-09-01T02:35:02.034Z,0
2017-09-01T02:36:03.668Z,0
2017-09-01T02:37:05.300Z,0
2017-09-01T02:38:06.930Z,0
2017-09-01T02:39:08.566Z,0
2017-09-01T02:40:10.196Z,0
2017-09-01T02:41:11.829Z,0
2017-09-01T02:42:13.463Z,0
2017-09-01T02:43:15.097Z,0
2017-09-01T02:44:16.736Z,0
2017-09-01T02:45:18.390Z,0
2017-09-01T02:46:19.996Z,0
2017-09-01T02:47:21.628Z,0
2017-09-01T02:48:23.263Z,0
2017-09-01T02:49:24.893Z,0
2017-09-01T02:50:26.524Z,0
2017-09-01T02:51:28.154Z,0
2017-09-01T02:52:29.785Z,0
2017-09-01T02:53:31.419Z,0
2017-09-01T02:54:33.055Z,0
2017-09-01T02:55:34.689Z,0
2017-09-01T02:56:36.317Z,0
2017-09-01T02:57:37.954Z,0
2017-09-01T02:58:39.586Z,0
2017-09-01T02:59:41.221Z,0
2017-09-01T03:00:42.851Z,0
2017-09-01T03:01:44.487Z,0
2017-09-01T03:02:46.118Z,0
2017-09-01T03:03:47.749Z,0
2017-09-01T03:04:49.380Z,0
2017-09-01T03:05:51.006Z,0
2017-09-01T03:06:52.637Z,0
2017-09-01T03:07:54.267Z,0
2017-09-01T03:08:55.897Z,0
2017-09-01T03:09:57.526Z,0
2017-09-01T03:10:59.165Z,0
2017-09-01T03:12:00.790Z,0
2017-09-01T03:13:02.426Z,0
2017-09-01T03:14:04.053Z,0
2017-09-01T03:15:05.686Z,0
2017-09-01T03:16:07.316Z,0
2017-09-01T03:17:08.954Z,0
2017-09-01T03:18:10.585Z,0
2017-09-01T03:19:12.216Z,0
2017-09-01T03:20:13.844Z,0
2017-09-01T03:21:15.473Z,0
2017-09-01T03:22:17.109Z,0
2017-09-01T03:23:18.738Z,0
2017-09-01T03:24:20.378Z,0
2017-09-01T03:25:22.004Z,0
2017-09-01T03:26:23.639Z,0
2017-09-01T03:27:25.270Z,0
2017-09-01T03:28:26.897Z,0
2017-09-01T03:29:28.527Z,0
2017-09-01T03:30:30.167Z,0
2017-09-01T03:31:31.793Z,0
2017-09-01T03:32:33.422Z,0
2017-09-01T03:33:35.056Z,0
2017-09-01T03:34:36.688Z,0
2017-09-01T03:35:38.325Z,0
2017-09-01T03:36:39.963Z,0
2017-09-01T03:37:41.588Z,0
2017-09-01T03:38:43.222Z,0
2017-09-01T03:39:44.859Z,0
2017-09-01T03:40:46.487Z,0
2017-09-01T03:41:48.118Z,0
2017-09-01T03:42:49.751Z,0
2017-09-01T03:43:51.384Z,0
2017-09-01T03:44:53.015Z,0
2017-09-01T03:45:54.652Z,0
2017-09-01T03:46:56.282Z,0
2017-09-01T03:47:57.919Z,0
2017-09-01T03:48:59.546Z,0
2017-09-01T03:50:01.180Z,0
2017-09-01T03:51:02.811Z,0
2017-09-01T03:52:04.441Z,0
2017-09-01T03:53:06.074Z,0
2017-09-01T03:54:07.707Z,0
2017-09-01T03:55:09.337Z,0
2017-09-01T03:56:10.968Z,0
2017-09-01T03:57:12.600Z,0
2017-09-01T03:58:14.229Z,0
2017-09-01T03:59:15.867Z,0
2017-09-01T04:00:17.498Z,0
2017-09-01T04:01:19.131Z,0
2017-09-01T04:02:20.759Z,0
2017-09-01T04:03:22.388Z,0
2017-09-01T04:04:24.016Z,0
2017-09-01T04:05:25.650Z,0
2017-09-01T04:06:27.276Z,0
2017-09-01T04:07:28.915Z,0
2017-09-01T04:08:30.542Z,0
2017-09-01T04:09:32.170Z,0
2017-09-01T04:10:33.805Z,0
2017-09-01T04:11:35.439Z,0
2017-09-01T04:12:37.074Z,0
2017-09-01T04:13:38.713Z,0
2017-09-01T04:14:40.346Z,0
2017-09-01T04:15:41.975Z,0
2017-09-01T04:16:43.604Z,0
2017-09-01T04:17:45.245Z,0
2017-09-01T04:18:46.877Z,0
2017-09-01T04:19:48.508Z,0
2017-09-01T04:20:50.151Z,0
2017-09-01T04:21:51.785Z,0
2017-09-01T04:22:53.414Z,0
2017-09-01T04:23:55.046Z,0
2017-09-01T04:24:56.679Z,0
2017-09-01T04:25:58.348Z,0
2017-09-01T04:26:59.981Z,0
2017-09-01T04:28:01.614Z,0
2017-09-01T04:29:03.249Z,0
2017-09-01T04:30:04.882Z,0
2017-09-01T04:31:06.552Z,0
2017-09-01T04:32:08.186Z,0
2017-09-01T04:33:09.816Z,0
2017-09-01T04:34:11.448Z,0
2017-09-01T04:35:13.083Z,0
2017-09-01T04:36:14.719Z,0
2017-09-01T04:37:16.352Z,0
2017-09-01T04:38:17.980Z,0
2017-09-01T04:39:19.610Z,0
2017-09-01T04:40:21.241Z,0
2017-09-01T04:41:22.875Z,0
2017-09-01T04:42:24.510Z,0
2017-09-01T04:43:26.157Z,0
2017-09-01T04:44:27.785Z,0
2017-09-01T04:45:29.421Z,0
2017-09-01T04:46:31.059Z,0
2017-09-01T04:47:32.693Z,0
2017-09-01T04:48:34.323Z,0
2017-09-01T04:49:35.970Z,0
2017-09-01T04:50:37.606Z,0
2017-09-01T04:51:39.247Z,5
2017-09-01T04:52:40.881Z,5
2017-09-01T04:53:42.514Z,5
2017-09-01T04:54:44.151Z,5
2017-09-01T04:55:45.780Z,5
2017-09-01T04:56:47.416Z,5
2017-09-01T04:57:49.051Z,5
2017-09-01T04:58:50.680Z,5
2017-09-01T04:59:52.314Z,10
2017-09-01T05:00:53.949Z,10
2017-09-01T05:01:55.581Z,10
2017-09-01T05:02:57.217Z,10
2017-09-01T05:03:58.856Z,15
2017-09-01T05:05:00.489Z,15
2017-09-01T05:06:02.182Z,15
2017-09-01T05:07:03.812Z,15
2017-09-01T05:08:05.450Z,15
2017-09-01T05:09:07.085Z,20
2017-09-01T05:10:08.770Z,20
2017-09-01T05:11:10.412Z,20
2017-09-01T05:12:12.056Z,20
2017-09-01T05:13:13.689Z,20
2017-09-01T05:14:15.324Z,20
2017-09-01T05:15:16.962Z,25
2017-09-01T05:16:18.593Z,25
2017-09-01T05:17:20.231Z,25
2017-09-01T05:18:21.869Z,25
2017-09-01T05:19:23.515Z,25
2017-09-01T05:20:25.148Z,25
2017-09-01T05:21:26.797Z,30
2017-09-01T05:22:28.434Z,30
2017-09-01T05:23:30.069Z,30
2017-09-01T05:24:31.703Z,30
2017-09-01T05:25:33.342Z,35
2017-09-01T05:26:34.979Z,35
2017-09-01T05:27:36.612Z,35
2017-09-01T05:28:38.248Z,30
2017-09-01T05:29:39.882Z,30
2017-09-01T05:30:41.525Z,30
2017-09-01T05:31:43.157Z,30
2017-09-01T05:32:44.823Z,30
2017-09-01T05:33:46.466Z,25
2017-09-01T05:34:48.097Z,25
2017-09-01T05:35:49.731Z,25
2017-09-01T05:36:51.369Z,25
2017-09-01T05:37:53.000Z,25
2017-09-01T05:38:54.636Z,20
2017-09-01T05:39:56.277Z,20
2017-09-01T05:40:57.913Z,20
2017-09-01T05:41:59.548Z,20
2017-09-01T05:43:01.183Z,20
2017-09-01T05:44:02.819Z,20
2017-09-01T05:45:04.450Z,20
2017-09-01T05:46:06.086Z,20
2017-09-01T05:47:07.723Z,20
2017-09-01T05:48:09.363Z,25
2017-09-01T05:49:10.999Z,25
2017-09-01T05:50:12.648Z,25
2017-09-01T05:51:14.281Z,30
2017-09-01T05:52:15.921Z,30
2017-09-01T05:53:17.551Z,35
2017-09-01T05:54:19.190Z,35
2017-09-01T05:55:20.867Z,40
2017-09-01T05:56:22.545Z,40
2017-09-01T05:57:24.171Z,40
2017-09-01T05:58:25.808Z,45
2017-09-01T05:59:27.564Z,45
2017-09-01T06:00:29.198Z,45
2017-09-01T06:01:30.835Z,45
2017-09-01T06:02:32.481Z,45
2017-09-01T06:03:34.112Z,40
2017-09-01T06:04:35.744Z,40
2017-09-01T06:05:37.385Z,35
2017-09-01T06:06:39.018Z,35
2017-09-01T06:07:40.660Z,35
2017-09-01T06:08:42.298Z,35
2017-09-01T06:09:43.937Z,35
2017-09-01T06:10:45.569Z,30
2017-09-01T06:11:47.208Z,30
2017-09-01T06:12:48.844Z,30
2017-09-01T06:13:50.479Z,30
2017-09-01T06:14:52.120Z,30
2017-09-01T06:15:53.762Z,35
2017-09-01T06:16:55.399Z,35
2017-09-01T06:17:57.034Z,35
2017-09-01T06:18:58.670Z,35
2017-09-01T06:20:00.304Z,35
2017-09-01T06:21:01.941Z,35
2017-09-01T06:22:03.572Z,40
2017-09-01T06:23:05.214Z,40
2017-09-01T06:24:06.849Z,40
2017-09-01T06:25:08.486Z,45
2017-09-01T06:26:10.122Z,45
2017-09-01T06:27:11.760Z,45
2017-09-01T06:28:13.394Z,50
2017-09-01T06:29:15.037Z,50
2017-09-01T06:30:16.671Z,50
2017-09-01T06:31:18.306Z,50
2017-09-01T06:32:19.964Z,55
2017-09-01T06:33:21.599Z,60
2017-09-01T06:34:23.241Z,65
2017-09-01T06:35:24.879Z,70
2017-09-01T06:36:26.517Z,75
2017-09-01T06:37:28.154Z,80
2017-09-01T06:38:29.818Z,80
2017-09-01T06:39:31.426Z,85
2017-09-01T06:40:33.060Z,85
2017-09-01T06:41:34.693Z,85
2017-09-01T06:42:36.330Z,85
2017-09-01T06:43:37.972Z,85
2017-09-01T06:44:39.605Z,85
2017-09-01T06:45:41.240Z,90
2017-09-01T06:46:42.880Z,90
2017-09-01T06:47:44.517Z,90
2017-09-01T06:48:46.204Z,90
2017-09-01T06:49:48.797Z,95
2017-09-01T06:50:50.436Z,95
2017-09-01T06:51:52.073Z,95
2017-09-01T06:52:53.721Z,95
2017-09-01T06:53:55.378Z,100
2017-09-01T06:54:57.010Z,100
2017-09-01T06:55:58.649Z,100
2017-09-01T06:57:00.284Z,100
2017-09-01T06:58:01.923Z,100
2017-09-01T06:59:03.566Z,100
2017-09-01T07:00:05.207Z,105
2017-09-01T07:01:06.849Z,105
2017-09-01T07:02:08.484Z,105
2017-09-01T07:03:10.130Z,105
2017-09-01T07:04:11.763Z,105
2017-09-01T07:05:13.401Z,105
2017-09-01T07:06:15.047Z,105
2017-09-01T07:07:16.709Z,105
2017-09-01T07:08:18.346Z,105
2017-09-01T07:09:19.979Z,105
2017-09-01T07:10:21.619Z,110
2017-09-01T07:11:23.273Z,110
2017-09-01T07:12:25.080Z,110
2017-09-01T07:13:26.728Z,110
2017-09-01T07:14:28.365Z,110
2017-09-01T07:15:30.032Z,110
2017-09-01T07:16:31.680Z,110
2017-09-01T07:17:33.321Z,110
2017-09-01T07:18:34.980Z,110
2017-09-01T07:19:36.621Z,105
2017-09-01T07:20:38.259Z,105
2017-09-01T07:21:39.900Z,105
2017-09-01T07:22:41.542Z,105
2017-09-01T07:23:43.187Z,105
2017-09-01T07:24:44.825Z,105
2017-09-01T07:25:46.459Z,110
2017-09-01T07:26:48.097Z,110
2017-09-01T07:27:49.744Z,110
2017-09-01T07:28:51.385Z,115
2017-09-01T07:29:53.024Z,115
2017-09-01T07:30:54.664Z,115
2017-09-01T07:31:56.306Z,120
2017-09-01T07:32:57.941Z,125
2017-09-01T07:33:59.593Z,135
2017-09-01T07:35:01.225Z,145
2017-09-01T07:36:02.869Z,155
2017-09-01T07:37:04.510Z,160
2017-09-01T07:38:06.147Z,165
2017-09-01T07:39:07.783Z,175
2017-09-01T07:40:09.418Z,180
2017-09-01T07:41:11.067Z,190
2017-09-01T07:42:12.706Z,195
2017-09-01T07:43:14.354Z,205
2017-09-01T07:44:15.989Z,210
2017-09-01T07:45:17.625Z,210
2017-09-01T07:46:19.263Z,200
2017-09-01T07:47:20.902Z,200
2017-09-01T07:48:22.557Z,205
2017-09-01T07:49:24.193Z,220
2017-09-01T07:50:25.840Z,240
2017-09-01T07:51:27.493Z,345
2017-09-01T07:52:29.135Z,485
2017-09-01T07:53:30.775Z,350
2017-09-01T07:54:32.416Z,290
2017-09-01T07:55:34.063Z,275
2017-09-01T07:56:35.700Z,260
2017-09-01T07:57:37.351Z,255
2017-09-01T07:58:39.004Z,255
2017-09-01T07:59:40.647Z,260
2017-09-01T08:00:42.289Z,265
2017-09-01T08:01:43.977Z,295
2017-09-01T08:02:45.625Z,300
2017-09-01T08:03:47.270Z,295
2017-09-01T08:04:48.920Z,305
2017-09-01T08:05:50.572Z,450
2017-09-01T08:06:52.214Z,380
2017-09-01T08:07:53.849Z,375
2017-09-01T08:08:55.507Z,385
2017-09-01T08:09:57.152Z,430
2017-09-01T08:10:58.798Z,520
2017-09-01T08:12:00.438Z,550
2017-09-01T08:13:02.092Z,585
2017-09-01T08:14:03.737Z,510
2017-09-01T08:15:05.378Z,365
2017-09-01T08:16:07.031Z,480
2017-09-01T08:17:08.679Z,315
2017-09-01T08:18:10.323Z,270
2017-09-01T08:19:11.971Z,275
2017-09-01T08:20:13.628Z,295
2017-09-01T08:21:15.275Z,420
2017-09-01T08:22:16.917Z,345
2017-09-01T08:23:18.581Z,355
2017-09-01T08:24:20.234Z,745
2017-09-01T08:25:21.879Z,755
2017-09-01T08:26:23.529Z,595
2017-09-01T08:27:25.195Z,490
2017-09-01T08:28:26.839Z,505
2017-09-01T08:29:28.483Z,565
2017-09-01T08:30:30.137Z,750
2017-09-01T08:31:31.788Z,685
2017-09-01T08:32:33.433Z,905
2017-09-01T08:33:35.126Z,795
2017-09-01T08:34:36.790Z,400
2017-09-01T08:35:38.416Z,430
2017-09-01T08:36:40.065Z,595
2017-09-01T08:37:41.758Z,925
2017-09-01T08:38:43.404Z,955
2017-09-01T08:39:45.051Z,975
2017-09-01T08:40:46.733Z,975
2017-09-01T08:41:48.377Z,985
2017-09-01T08:42:50.026Z,930
2017-09-01T08:43:51.700Z,985
2017-09-01T08:44:53.352Z,1055
2017-09-01T08:45:54.999Z,1030
2017-09-01T08:46:56.652Z,1030
2017-09-01T08:47:58.325Z,1005
2017-09-01T08:48:59.978Z,1080
2017-09-01T08:50:01.634Z,1185
2017-09-01T08:51:03.290Z,1280
2017-09-01T08:52:04.948Z,1230
2017-09-01T08:53:06.596Z,1180
2017-09-01T08:54:08.266Z,1230
2017-09-01T08:55:09.923Z,1335
2017-09-01T08:56:11.568Z,1470
2017-09-01T08:57:13.272Z,1330
2017-09-01T08:58:14.920Z,1215
2017-09-01T08:59:16.567Z,1230
2017-09-01T09:00:18.281Z,1265
2017-09-01T09:01:19.928Z,485
2017-09-01T09:02:21.585Z,1025
2017-09-01T09:03:23.237Z,1190
2017-09-01T09:04:24.886Z,1230
2017-09-01T09:05:26.539Z,1155
2017-09-01T09:06:28.195Z,1190
2017-09-01T09:07:29.852Z,1240
2017-09-01T09:08:31.506Z,1350
2017-09-01T09:09:33.160Z,1525
2017-09-01T09:10:34.814Z,1710
2017-09-01T09:11:36.464Z,1820
2017-09-01T09:12:38.118Z,1740
2017-09-01T09:13:39.772Z,1815
2017-09-01T09:14:41.425Z,1950
2017-09-01T09:15:43.084Z,2080
2017-09-01T09:16:44.740Z,2050
2017-09-01T09:17:46.390Z,2010
2017-09-01T09:18:48.047Z,2285
2017-09-01T09:19:49.698Z,2550
2017-09-01T09:20:51.352Z,1995
2017-09-01T09:21:53.008Z,2720
2017-09-01T09:22:54.666Z,2640
2017-09-01T09:23:56.333Z,2620
2017-09-01T09:24:57.988Z,2630
2017-09-01T09:25:59.640Z,1430
2017-09-01T09:27:01.293Z,2035
2017-09-01T09:28:02.945Z,1595
2017-09-01T09:29:04.599Z,2105
2017-09-01T09:30:06.253Z,2495
2017-09-01T09:31:07.908Z,2540
2017-09-01T09:32:09.559Z,2520
2017-09-01T09:33:11.221Z,2550
2017-09-01T09:34:12.865Z,2570
2017-09-01T09:35:14.519Z,2440
2017-09-01T09:36:16.175Z,2505
2017-09-01T09:37:17.838Z,2395
2017-09-01T09:38:19.485Z,1750
2017-09-01T09:39:21.149Z,1660
2017-09-01T09:40:22.799Z,565
2017-09-01T09:41:24.454Z,315
2017-09-01T09:42:26.110Z,290
2017-09-01T09:43:27.761Z,285
2017-09-01T09:44:29.416Z,295
2017-09-01T09:45:31.076Z,325
2017-09-01T09:46:32.852Z,560
2017-09-01T09:47:34.511Z,405
2017-09-01T09:48:36.163Z,390
2017-09-01T09:49:37.807Z,465
2017-09-01T09:50:39.456Z,330
2017-09-01T09:51:41.111Z,440
2017-09-01T09:52:42.759Z,540
2017-09-01T09:53:44.407Z,595
2017-09-01T09:54:46.054Z,520
2017-09-01T09:55:47.701Z,520
2017-09-01T09:56:49.350Z,1350
2017-09-01T09:57:51.004Z,1935
2017-09-01T09:58:52.652Z,1565
2017-09-01T09:59:54.300Z,2100
2017-09-01T10:00:55.947Z,2130
2017-09-01T10:01:57.597Z,855
2017-09-01T10:02:59.248Z,600
2017-09-01T10:04:00.894Z,510
2017-09-01T10:05:02.540Z,470
2017-09-01T10:06:04.186Z,495
2017-09-01T10:07:05.836Z,505
2017-09-01T10:08:07.480Z,485
2017-09-01T10:09:09.124Z,525
2017-09-01T10:10:10.773Z,610
2017-09-01T10:11:12.418Z,620
2017-09-01T10:12:14.068Z,570
2017-09-01T10:13:15.716Z,1200
2017-09-01T10:14:17.390Z,2025
2017-09-01T10:15:19.015Z,1110
2017-09-01T10:16:20.675Z,840
2017-09-01T10:17:22.398Z,590
2017-09-01T10:18:24.044Z,505
2017-09-01T10:19:25.693Z,485
2017-09-01T10:20:27.345Z,480
2017-09-01T10:21:28.993Z,470
2017-09-01T10:22:30.643Z,435
2017-09-01T10:23:32.353Z,400
2017-09-01T10:24:33.999Z,420
2017-09-01T10:25:35.647Z,405
2017-09-01T10:26:37.293Z,440
2017-09-01T10:27:38.941Z,520
2017-09-01T10:28:40.592Z,875
2017-09-01T10:29:42.234Z,585
2017-09-01T10:30:43.881Z,720
2017-09-01T10:31:45.534Z,505
2017-09-01T10:32:47.174Z,485
2017-09-01T10:33:48.821Z,475
2017-09-01T10:34:50.468Z,470
2017-09-01T10:35:52.113Z,430
2017-09-01T10:36:53.759Z,440
2017-09-01T10:37:55.406Z,445
2017-09-01T10:38:57.048Z,460
2017-09-01T10:39:58.693Z,575
2017-09-01T10:41:00.340Z,1480
2017-09-01T10:42:01.995Z,1965
2017-09-01T10:43:03.647Z,990
2017-09-01T10:44:05.289Z,2375
2017-09-01T10:45:06.932Z,2430
2017-09-01T10:46:08.574Z,2475
2017-09-01T10:47:10.220Z,2205
2017-09-01T10:48:11.863Z,1205
2017-09-01T10:49:13.508Z,700
2017-09-01T10:50:15.152Z,650
2017-09-01T10:51:16.796Z,1295
2017-09-01T10:52:18.443Z,2365
2017-09-01T10:53:20.091Z,3120
2017-09-01T10:54:21.736Z,3270
2017-09-01T10:55:23.388Z,3105
2017-09-01T10:56:25.035Z,3055
2017-09-01T10:57:26.681Z,2990
2017-09-01T10:58:28.325Z,2555
2017-09-01T10:59:29.973Z,2990
2017-09-01T11:00:31.646Z,3085
2017-09-01T11:01:33.299Z,3265
2017-09-01T11:02:34.955Z,3295
2017-09-01T11:03:36.603Z,3300
2017-09-01T11:04:38.253Z,3165
2017-09-01T11:05:39.904Z,2940
2017-09-01T11:06:41.550Z,2940
2017-09-01T11:07:43.200Z,2665
2017-09-01T11:08:44.849Z,3110
2017-09-01T11:09:46.500Z,3105
2017-09-01T11:10:48.154Z,3015
2017-09-01T11:11:49.804Z,2975
2017-09-01T11:12:51.456Z,2395
2017-09-01T11:13:53.109Z,1210
2017-09-01T11:14:54.758Z,1305
2017-09-01T11:15:56.411Z,1550
2017-09-01T11:16:58.060Z,520
2017-09-01T11:17:59.713Z,665
2017-09-01T11:19:01.364Z,2010
2017-09-01T11:20:03.015Z,3465
2017-09-01T11:21:04.666Z,2650
2017-09-01T11:22:06.318Z,2070
2017-09-01T11:23:07.967Z,2965
2017-09-01T11:24:09.631Z,3340
2017-09-01T11:25:11.290Z,3405
2017-09-01T11:26:12.939Z,3325
2017-09-01T11:27:14.591Z,3215
2017-09-01T11:28:16.257Z,3160
2017-09-01T11:29:17.911Z,3240
2017-09-01T11:30:19.563Z,3270
2017-09-01T11:31:21.217Z,3310
2017-09-01T11:32:22.869Z,3350
2017-09-01T11:33:24.523Z,3080
2017-09-01T11:34:26.178Z,3150
2017-09-01T11:35:27.829Z,3130
2017-09-01T11:36:29.479Z,3150
2017-09-01T11:37:31.134Z,2980
2017-09-01T11:38:32.785Z,2975
2017-09-01T11:39:34.442Z,2890
2017-09-01T11:40:36.101Z,2970
2017-09-01T11:41:37.751Z,3235
2017-09-01T11:42:39.404Z,3255
2017-09-01T11:43:41.056Z,2935
2017-09-01T11:44:42.712Z,3010
2017-09-01T11:45:44.366Z,2995
2017-09-01T11:46:46.019Z,305
2017-09-01T11:47:47.671Z,300
2017-09-01T11:48:49.323Z,2880
2017-09-01T11:49:50.979Z,3305
2017-09-01T11:50:52.634Z,3215
2017-09-01T11:51:54.285Z,3125
2017-09-01T11:52:55.942Z,2990
2017-09-01T11:53:57.595Z,2870
2017-09-01T11:54:59.272Z,2790
2017-09-01T11:56:01.794Z,2775
2017-09-01T11:57:03.452Z,2930
2017-09-01T11:58:05.104Z,2990
2017-09-01T11:59:06.761Z,2925
2017-09-01T12:00:08.415Z,2380
2017-09-01T12:01:10.072Z,1610
2017-09-01T12:02:11.726Z,2165
2017-09-01T12:03:13.382Z,2720
2017-09-01T12:04:15.038Z,2390
2017-09-01T12:05:16.684Z,2340
2017-09-01T12:06:18.341Z,2165
2017-09-01T12:07:19.997Z,350
2017-09-01T12:08:21.653Z,300
2017-09-01T12:09:23.306Z,260
2017-09-01T12:10:24.951Z,230
2017-09-01T12:11:26.599Z,185
2017-09-01T12:12:28.249Z,160
2017-09-01T12:13:29.900Z,150
2017-09-01T12:14:31.557Z,150
2017-09-01T12:15:33.198Z,150
2017-09-01T12:16:34.849Z,155
2017-09-01T12:17:36.498Z,155
2017-09-01T12:18:38.144Z,165
2017-09-01T12:19:39.792Z,175
2017-09-01T12:20:41.438Z,175
2017-09-01T12:21:43.083Z,185
2017-09-01T12:22:44.731Z,190
2017-09-01T12:23:46.378Z,190
2017-09-01T12:24:48.025Z,200
2017-09-01T12:25:49.670Z,215
2017-09-01T12:26:51.318Z,245
2017-09-01T12:27:52.961Z,295
2017-09-01T12:28:54.606Z,1780
2017-09-01T12:29:56.254Z,2305
2017-09-01T12:30:57.901Z,2320
2017-09-01T12:31:59.547Z,2315
2017-09-01T12:33:01.199Z,1875
2017-09-01T12:34:02.850Z,1090
2017-09-01T12:35:04.496Z,2420
2017-09-01T12:36:06.145Z,2330
2017-09-01T12:37:07.790Z,2510
2017-09-01T12:38:09.442Z,2490
2017-09-01T12:39:11.097Z,2340
2017-09-01T12:40:12.745Z,2340
2017-09-01T12:41:14.397Z,2465
2017-09-01T12:42:16.062Z,2480
2017-09-01T12:43:17.711Z,2515
2017-09-01T12:44:19.365Z,2405
2017-09-01T12:45:21.012Z,2390
2017-09-01T12:46:22.661Z,2450
2017-09-01T12:47:24.313Z,2450
2017-09-01T12:48:25.961Z,2415
2017-09-01T12:49:27.620Z,2375
2017-09-01T12:50:29.269Z,2375
2017-09-01T12:51:30.923Z,2525
2017-09-01T12:52:32.575Z,2500
2017-09-01T12:53:34.229Z,2520
2017-09-01T12:54:35.878Z,2460
2017-09-01T12:55:37.528Z,2475
2017-09-01T12:56:39.183Z,2475
2017-09-01T12:57:40.832Z,2420
2017-09-01T12:58:42.490Z,2350
2017-09-01T12:59:44.145Z,2395
2017-09-01T13:00:45.792Z,2380
2017-09-01T13:01:47.441Z,2335
2017-09-01T13:02:49.095Z,2450
2017-09-01T13:03:50.751Z,2420
2017-09-01T13:04:52.406Z,2285
2017-09-01T13:05:54.059Z,2205
2017-09-01T13:06:55.715Z,2270
2017-09-01T13:07:57.363Z,2190
2017-09-01T13:08:59.022Z,2260
2017-09-01T13:10:00.675Z,1515
2017-09-01T13:11:02.326Z,510
2017-09-01T13:12:03.982Z,485
2017-09-01T13:13:05.640Z,1815
2017-09-01T13:14:07.291Z,1220
2017-09-01T13:15:08.944Z,2225
2017-09-01T13:16:10.594Z,1230
2017-09-01T13:17:12.243Z,2170
2017-09-01T13:18:13.906Z,1805
2017-09-01T13:19:15.561Z,785
2017-09-01T13:20:17.211Z,265
2017-09-01T13:21:18.864Z,410
2017-09-01T13:22:20.522Z,435
2017-09-01T13:23:22.173Z,1245
2017-09-01T13:24:23.824Z,270
2017-09-01T13:25:25.607Z,250
2017-09-01T13:26:27.344Z,235
2017-09-01T13:27:28.992Z,225
2017-09-01T13:28:30.645Z,215
2017-09-01T13:29:32.290Z,195
2017-09-01T13:30:33.970Z,185
2017-09-01T13:31:35.617Z,185
2017-09-01T13:32:37.266Z,195
2017-09-01T13:33:38.912Z,215
2017-09-01T13:34:40.557Z,230
2017-09-01T13:35:42.205Z,285
2017-09-01T13:36:43.846Z,575
2017-09-01T13:37:45.493Z,1410
2017-09-01T13:38:47.139Z,330
2017-09-01T13:39:48.799Z,285
2017-09-01T13:40:50.443Z,245
2017-09-01T13:41:52.095Z,225
2017-09-01T13:42:53.748Z,210
2017-09-01T13:43:55.387Z,190
2017-09-01T13:44:57.047Z,165
2017-09-01T13:45:58.711Z,145
2017-09-01T13:47:00.353Z,125
2017-09-01T13:48:01.991Z,115
2017-09-01T13:49:03.642Z,105
2017-09-01T13:50:05.282Z,105
2017-09-01T13:51:06.924Z,100
2017-09-01T13:52:08.564Z,100
2017-09-01T13:53:10.209Z,95
2017-09-01T13:54:11.853Z,110
2017-09-01T13:55:13.522Z,700
2017-09-01T13:56:15.175Z,130
2017-09-01T13:57:16.881Z,120
2017-09-01T13:58:18.512Z,125
2017-09-01T13:59:20.154Z,125
2017-09-01T14:00:21.796Z,120
2017-09-01T14:01:23.437Z,110
2017-09-01T14:02:25.083Z,115
2017-09-01T14:03:26.725Z,120
2017-09-01T14:04:28.370Z,100
2017-09-01T14:05:30.005Z,100
2017-09-01T14:06:31.645Z,100
2017-09-01T14:07:33.283Z,90
2017-09-01T14:08:34.953Z,80
2017-09-01T14:09:36.617Z,75
2017-09-01T14:10:38.255Z,70
2017-09-01T14:11:39.917Z,75
2017-09-01T14:12:41.612Z,75
2017-09-01T14:13:43.248Z,75
2017-09-01T14:14:44.888Z,75
2017-09-01T14:15:46.571Z,75
2017-09-01T14:16:48.214Z,75
2017-09-01T14:17:49.889Z,70
2017-09-01T14:18:51.637Z,70
2017-09-01T14:19:53.281Z,65
2017-09-01T14:20:54.920Z,65
2017-09-01T14:21:56.559Z,65
2017-09-01T14:22:58.281Z,65
2017-09-01T14:23:59.927Z,65
2017-09-01T14:25:01.572Z,65
2017-09-01T14:26:03.214Z,70
2017-09-01T14:27:04.850Z,70
2017-09-01T14:28:06.492Z,75